Station Historical Data
Daily Summary for July 12, 2017 Units:  Metric    English   Both
« Previous Day
Next Day »
Daily Weekly Monthly Yearly Custom
  High: Low: Average:
Temperature: 26.1 °C 20.1 °C 22.9 °C
Dew Point: 22.2 °C 18.4 °C 20.4 °C
Humidity: 92% 77% 86%
Wind Speed: 19.3km/h 0km/h 5.1km/h
Wind Gust: 27.4km/h - -
Wind- - SW
Pressure: 1014.8 hPa 1011.4 hPa -
Precipitation: 0 mm    
Historical Graphs
 
 
Tabular Data for July 12, 2017
Time Temperature Dew Point Pressure Wind Wind Speed Wind Gust Humidity Rainfall Rate (Hourly)
00:04 21.3 °C 18.7 °C 1012.8 hPa Calm     85% 0 mm
00:09 21.3 °C 18.7 °C 1012.8 hPa Calm     85% 0 mm
00:14 21.3 °C 18.7 °C 1012.8 hPa Calm     85% 0 mm
00:19 21.3 °C 18.7 °C 1012.4 hPa Calm     85% 0 mm
00:24 21.3 °C 18.7 °C 1012.4 hPa Calm     85% 0 mm
00:29 21.2 °C 18.8 °C 1012.8 hPa Calm     86% 0 mm
00:34 21.2 °C 18.8 °C 1012.8 hPa Calm     86% 0 mm
00:39 21.2 °C 18.8 °C 1012.8 hPa Calm     86% 0 mm
00:44 21.3 °C 18.8 °C 1012.8 hPa Calm     86% 0 mm
00:49 21.3 °C 19 °C 1012.8 hPa Calm     87% 0 mm
00:54 21.4 °C 19.1 °C 1012.8 hPa Calm     87% 0 mm
00:59 21.4 °C 19.1 °C 1013.1 hPa Calm     87% 0 mm
01:04 21.4 °C 19.1 °C 1013.1 hPa Calm     87% 0 mm
01:09 21.3 °C 19.1 °C 1013.1 hPa Calm     87% 0 mm
01:14 21.3 °C 19.1 °C 1013.1 hPa Calm     87% 0 mm
01:19 21.2 °C 18.9 °C 1013.1 hPa Calm     87% 0 mm
01:24 21.1 °C 18.9 °C 1012.8 hPa Calm     87% 0 mm
01:29 21.1 °C 18.8 °C 1013.1 hPa Calm     87% 0 mm
01:34 21.1 °C 18.8 °C 1013.1 hPa Calm     87% 0 mm
01:39 21.1 °C 18.8 °C 1013.1 hPa Calm     87% 0 mm
01:44 21 °C 18.8 °C 1013.1 hPa Calm     87% 0 mm
01:49 20.9 °C 18.7 °C 1013.1 hPa Calm     87% 0 mm
01:54 20.8 °C 18.6 °C 1013.1 hPa Calm     87% 0 mm
01:59 20.7 °C 18.4 °C 1013.1 hPa Calm     87% 0 mm
02:04 20.6 °C 18.6 °C 1013.1 hPa Calm     88% 0 mm
02:09 20.6 °C 18.6 °C 1012.8 hPa Calm     88% 0 mm
02:14 20.7 °C 18.6 °C 1012.8 hPa Calm     88% 0 mm
02:19 20.7 °C 18.6 °C 1012.8 hPa Calm     88% 0 mm
02:24 20.7 °C 18.6 °C 1012.8 hPa Calm     88% 0 mm
02:29 20.6 °C 18.6 °C 1012.8 hPa Calm     88% 0 mm
02:34 20.6 °C 18.5 °C 1012.8 hPa Calm     88% 0 mm
02:39 20.5 °C 18.6 °C 1012.4 hPa Calm     89% 0 mm
02:44 20.6 °C 18.7 °C 1012.8 hPa Calm     89% 0 mm
02:49 20.6 °C 18.7 °C 1012.8 hPa Calm     89% 0 mm
02:54 20.6 °C 18.7 °C 1012.8 hPa Calm     89% 0 mm
02:59 20.6 °C 18.7 °C 1012.8 hPa Calm     89% 0 mm
03:04 20.6 °C 18.7 °C 1012.8 hPa Calm     89% 0 mm
03:09 20.6 °C 18.7 °C 1012.4 hPa Calm     89% 0 mm
03:14 20.6 °C 18.7 °C 1012.4 hPa Calm     89% 0 mm
03:19 20.5 °C 18.6 °C 1012.8 hPa Calm     89% 0 mm
03:24 20.5 °C 18.8 °C 1012.4 hPa Calm     90% 0 mm
03:29 20.4 °C 18.7 °C 1012.8 hPa Calm     90% 0 mm
03:34 20.3 °C 18.6 °C 1012.8 hPa Calm     90% 0 mm
03:39 20.3 °C 18.6 °C 1012.8 hPa Calm     90% 0 mm
03:44 20.2 °C 18.5 °C 1013.1 hPa Calm     90% 0 mm
03:49 20.1 °C 18.4 °C 1013.1 hPa Calm     90% 0 mm
03:54 20.1 °C 18.4 °C 1013.1 hPa Calm     90% 0 mm
03:59 20.1 °C 18.6 °C 1013.1 hPa Calm     91% 0 mm
04:04 20.2 °C 18.7 °C 1013.1 hPa Calm     91% 0 mm
04:09 20.2 °C 18.7 °C 1013.1 hPa Calm     91% 0 mm
04:14 20.3 °C 18.8 °C 1013.1 hPa Calm     91% 0 mm
04:19 20.4 °C 18.9 °C 1013.1 hPa Calm     91% 0 mm
04:24 20.4 °C 18.9 °C 1013.1 hPa Calm     91% 0 mm
04:29 20.4 °C 18.9 °C 1012.8 hPa Calm     91% 0 mm
04:34 20.4 °C 18.9 °C 1012.8 hPa Calm     91% 0 mm
04:39 20.4 °C 18.9 °C 1012.8 hPa Calm     91% 0 mm
04:44 20.4 °C 18.9 °C 1012.8 hPa Calm     91% 0 mm
04:49 20.4 °C 18.9 °C 1012.8 hPa Calm     91% 0 mm
04:54 20.6 °C 19.1 °C 1012.8 hPa Calm     91% 0 mm
04:59 20.6 °C 19.1 °C 1012.8 hPa Calm     91% 0 mm
05:04 20.7 °C 19.2 °C 1012.8 hPa Calm     91% 0 mm
05:09 20.7 °C 19.2 °C 1013.1 hPa Calm     91% 0 mm
05:14 20.6 °C 19.1 °C 1013.1 hPa Calm     91% 0 mm
05:19 20.6 °C 19.1 °C 1013.1 hPa Calm     91% 0 mm
05:24 20.5 °C 19 °C 1013.1 hPa Calm     91% 0 mm
05:29 20.5 °C 19 °C 1013.4 hPa Calm     91% 0 mm
05:34 20.4 °C 18.9 °C 1013.4 hPa Calm     91% 0 mm
05:39 20.4 °C 18.9 °C 1013.4 hPa Calm     91% 0 mm
05:44 20.6 °C 19.1 °C 1013.1 hPa Calm     91% 0 mm
05:49 20.7 °C 19.2 °C 1013.1 hPa Calm     91% 0 mm
05:54 20.7 °C 19.2 °C 1013.1 hPa Calm     91% 0 mm
05:59 20.9 °C 19.4 °C 1013.4 hPa Calm     91% 0 mm
06:04 21.2 °C 19.6 °C 1013.4 hPa Calm     91% 0 mm
06:09 21.3 °C 19.7 °C 1013.4 hPa Calm     91% 0 mm
06:14 21.6 °C 20 °C 1013.4 hPa SSW 1.6 km/h 4.8 km/h 91% 0 mm
06:19 21.9 °C 20.4 °C 1013.4 hPa SW 1.6 km/h 11.3 km/h 91% 0 mm
06:24 22.3 °C 20.8 °C 1013.4 hPa SW 4.8 km/h 12.9 km/h 91% 0 mm
06:29 22.6 °C 21 °C 1013.4 hPa SW 4.8 km/h 12.9 km/h 91% 0 mm
06:34 22.7 °C 21.1 °C 1013.8 hPa WSW 4.8 km/h 12.9 km/h 91% 0 mm
06:39 22.7 °C 21 °C 1013.8 hPa WSW 4.8 km/h 12.9 km/h 90% 0 mm
06:44 22.8 °C 21.1 °C 1013.8 hPa WSW 4.8 km/h 11.3 km/h 90% 0 mm
06:49 22.8 °C 20.9 °C 1013.8 hPa WSW 8 km/h 12.9 km/h 89% 0 mm
06:54 22.8 °C 20.9 °C 1013.8 hPa West 3.2 km/h 11.3 km/h 89% 0 mm
06:59 22.8 °C 20.9 °C 1013.4 hPa SW 4.8 km/h 16.1 km/h 89% 0 mm
07:04 22.8 °C 20.9 °C 1013.4 hPa WSW 12.9 km/h 14.5 km/h 89% 0 mm
07:09 22.8 °C 20.9 °C 1013.4 hPa WSW 4.8 km/h 12.9 km/h 89% 0 mm
07:14 22.8 °C 20.9 °C 1013.4 hPa West 1.6 km/h 8 km/h 89% 0 mm
07:19 22.8 °C 20.9 °C 1013.4 hPa Calm   6.4 km/h 89% 0 mm
07:24 22.9 °C 21 °C 1013.4 hPa WSW 1.6 km/h 6.4 km/h 89% 0 mm
07:29 22.8 °C 20.9 °C 1013.4 hPa SW 3.2 km/h 8 km/h 89% 0 mm
07:34 22.8 °C 20.9 °C 1013.4 hPa SW 4.8 km/h 17.7 km/h 89% 0 mm
07:39 22.8 °C 20.9 °C 1013.4 hPa SW 8 km/h 17.7 km/h 89% 0 mm
07:44 22.8 °C 20.7 °C 1013.4 hPa West 6.4 km/h 11.3 km/h 88% 0 mm
07:49 22.7 °C 20.6 °C 1013.8 hPa WSW 6.4 km/h 14.5 km/h 88% 0 mm
07:54 22.6 °C 20.7 °C 1013.8 hPa WSW 6.4 km/h 14.5 km/h 89% 0 mm
07:59 22.5 °C 20.8 °C 1013.8 hPa West 8 km/h 11.3 km/h 90% 0 mm
08:04 22.4 °C 20.7 °C 1013.4 hPa West 8 km/h 12.9 km/h 90% 0.25 mm
08:09 22.3 °C 20.6 °C 1013.8 hPa West 9.7 km/h 14.5 km/h 90% 1.02 mm
08:14 22.2 °C 20.4 °C 1013.8 hPa SW 8 km/h 19.3 km/h 90% 2.29 mm
08:19 22.1 °C 20.5 °C 1013.8 hPa WSW 6.4 km/h 19.3 km/h 91% 3.81 mm
08:24 22.1 °C 20.5 °C 1014.1 hPa West 6.4 km/h 12.9 km/h 91% 5.08 mm
08:29 22 °C 20.4 °C 1014.1 hPa SW 12.9 km/h 20.9 km/h 91% 5.33 mm
08:34 21.8 °C 20.2 °C 1014.1 hPa SW 12.9 km/h 22.5 km/h 91% 5.59 mm
08:39 21.7 °C 20.4 °C 1014.1 hPa WSW 4.8 km/h 17.7 km/h 92% 5.59 mm
08:44 21.7 °C 20.4 °C 1014.4 hPa SW 6.4 km/h 14.5 km/h 92% 5.59 mm
08:49 21.8 °C 20.4 °C 1014.1 hPa WSW 9.7 km/h 14.5 km/h 92% 5.59 mm
08:54 21.8 °C 20.4 °C 1014.1 hPa WSW 8 km/h 14.5 km/h 92% 5.59 mm
08:59 21.8 °C 20.4 °C 1014.1 hPa WSW 6.4 km/h 14.5 km/h 92% 5.59 mm
09:04 21.8 °C 20.4 °C 1014.4 hPa SW 6.4 km/h 14.5 km/h 92% 5.33 mm
09:09 21.7 °C 20.3 °C 1014.4 hPa WSW 8 km/h 19.3 km/h 92% 4.83 mm
09:14 21.6 °C 20.3 °C 1014.4 hPa WSW 9.7 km/h 19.3 km/h 92% 3.56 mm
09:19 21.6 °C 20.2 °C 1014.4 hPa WSW 4.8 km/h 12.9 km/h 92% 2.03 mm
09:24 21.6 °C 20.3 °C 1014.4 hPa West 4.8 km/h 9.7 km/h 92% 0.76 mm
09:29 21.6 °C 20.2 °C 1014.8 hPa SW 19.3 km/h 19.3 km/h 92% 0.51 mm
09:34 21.4 °C 20.1 °C 1014.8 hPa SSW 12.9 km/h 19.3 km/h 92% 0.25 mm
09:39 21.4 °C 20.1 °C 1014.8 hPa SW 6.4 km/h 12.9 km/h 92% 0.25 mm
09:44 21.4 °C 20.1 °C 1014.8 hPa WSW 9.7 km/h 9.7 km/h 92% 0.25 mm
09:49 21.6 °C 20.2 °C 1014.8 hPa SW 3.2 km/h 11.3 km/h 92% 0.25 mm
09:54 21.6 °C 20.3 °C 1014.8 hPa SW 4.8 km/h 11.3 km/h 92% 0.25 mm
09:59 21.7 °C 20.4 °C 1014.8 hPa SW 4.8 km/h 9.7 km/h 92% 0.25 mm
10:04 21.7 °C 20.3 °C 1014.8 hPa SW 6.4 km/h 12.9 km/h 92% 0.25 mm
10:09 21.7 °C 20.3 °C 1014.8 hPa SW 6.4 km/h 14.5 km/h 92% 0 mm
10:14 21.7 °C 20.3 °C 1014.8 hPa SSW 4.8 km/h 12.9 km/h 92% 0 mm
10:19 21.7 °C 20.4 °C 1014.8 hPa SW 4.8 km/h 12.9 km/h 92% 0.25 mm
10:24 21.7 °C 20.4 °C 1014.8 hPa SW 4.8 km/h 11.3 km/h 92% 0.51 mm
10:29 21.7 °C 20.4 °C 1014.4 hPa WSW 3.2 km/h 8 km/h 92% 0.51 mm
10:34 21.9 °C 20.6 °C 1014.1 hPa SW 3.2 km/h 12.9 km/h 92% 0.51 mm
10:39 22.2 °C 20.8 °C 1014.1 hPa SSW 4.8 km/h 6.4 km/h 92% 0.51 mm
10:44 22.7 °C 21.3 °C 1014.1 hPa SSW 1.6 km/h 8 km/h 92% 0.51 mm
10:49 23.3 °C 21.7 °C 1014.1 hPa SSW 3.2 km/h 8 km/h 91% 0.51 mm
10:54 23.6 °C 21.8 °C 1014.1 hPa SSW 3.2 km/h 12.9 km/h 90% 0.51 mm
10:59 23.4 °C 21.4 °C 1014.1 hPa SW 4.8 km/h 12.9 km/h 89% 0.51 mm
11:04 23.3 °C 21.2 °C 1014.1 hPa SW 6.4 km/h 14.5 km/h 88% 0.51 mm
11:09 23.1 °C 20.8 °C 1014.1 hPa SW 8 km/h 14.5 km/h 87% 0.51 mm
11:14 23.3 °C 21 °C 1014.1 hPa SW 8 km/h 17.7 km/h 87% 0.25 mm
11:19 23.4 °C 20.9 °C 1014.1 hPa SW 8 km/h 17.7 km/h 86% 0.25 mm
11:24 23.4 °C 20.8 °C 1014.1 hPa SW 8 km/h 17.7 km/h 85% 0 mm
11:29 23.3 °C 20.6 °C 1014.4 hPa WNW 11.3 km/h 20.9 km/h 85% 0 mm
11:34 23.5 °C 20.8 °C 1014.4 hPa WSW 1.6 km/h 17.7 km/h 85% 0 mm
11:39 23.7 °C 20.8 °C 1014.4 hPa SW 16.1 km/h 16.1 km/h 84% 0 mm
11:44 23.9 °C 21 °C 1014.4 hPa West 8 km/h 16.1 km/h 84% 0 mm
11:49 24.5 °C 21.2 °C 1014.4 hPa WSW 8 km/h 16.1 km/h 82% 0 mm
11:54 25.2 °C 21.7 °C 1014.4 hPa WSW 8 km/h 14.5 km/h 81% 0 mm
11:59 25.2 °C 21.3 °C 1014.4 hPa WSW 8 km/h 19.3 km/h 79% 0 mm
12:04 25.3 °C 21.2 °C 1014.4 hPa SW 12.9 km/h 20.9 km/h 78% 0 mm
12:09 25.1 °C 21.4 °C 1014.4 hPa WSW 8 km/h 25.7 km/h 80% 0 mm
12:14 24.9 °C 21 °C 1014.8 hPa SW 4.8 km/h 20.9 km/h 79% 0 mm
12:19 25.4 °C 21.7 °C 1014.4 hPa WSW 9.7 km/h 20.9 km/h 80% 0 mm
12:24 25.7 °C 21.8 °C 1014.1 hPa WSW 8 km/h 17.7 km/h 79% 0 mm
12:29 26.1 °C 22.2 °C 1014.1 hPa SW 8 km/h 17.7 km/h 79% 0 mm
12:34 25.8 °C 21.5 °C 1014.1 hPa SW 9.7 km/h 22.5 km/h 77% 0 mm
12:39 25.1 °C 21.2 °C 1014.1 hPa WSW 11.3 km/h 19.3 km/h 79% 0 mm
12:44 24.8 °C 21.1 °C 1014.1 hPa West 3.2 km/h 22.5 km/h 80% 0 mm
12:49 25.1 °C 21.4 °C 1014.1 hPa SW 12.9 km/h 20.9 km/h 80% 0 mm
12:54 25.2 °C 21.4 °C 1014.1 hPa SW 9.7 km/h 20.9 km/h 80% 0 mm
12:59 25.3 °C 21.6 °C 1014.1 hPa WSW 9.7 km/h 19.3 km/h 80% 0 mm
13:04 25.6 °C 21.7 °C 1014.1 hPa WSW 8 km/h 14.5 km/h 79% 0 mm
13:09 25.7 °C 21.8 °C 1014.1 hPa WNW 9.7 km/h 12.9 km/h 79% 0 mm
13:14 25.6 °C 21.7 °C 1013.8 hPa SW 6.4 km/h 14.5 km/h 79% 0 mm
13:19 25.1 °C 21.4 °C 1013.8 hPa WSW 8 km/h 14.5 km/h 80% 0 mm
13:24 24.7 °C 21.2 °C 1013.8 hPa WSW 8 km/h 16.1 km/h 81% 0 mm
13:29 24.6 °C 21.5 °C 1014.1 hPa SW 9.7 km/h 16.1 km/h 83% 0 mm
13:34 24.8 °C 21.5 °C 1014.1 hPa WSW 8 km/h 16.1 km/h 82% 0 mm
13:39 24.9 °C 21.4 °C 1014.1 hPa WSW 9.7 km/h 11.3 km/h 81% 0 mm
13:44 24.8 °C 21.3 °C 1014.1 hPa WSW 9.7 km/h 19.3 km/h 81% 0 mm
13:49 24.5 °C 21.2 °C 1014.1 hPa WSW 14.5 km/h 20.9 km/h 82% 0 mm
13:54 24.2 °C 21.2 °C 1014.1 hPa WSW 9.7 km/h 20.9 km/h 83% 0 mm
13:59 24.1 °C 21.2 °C 1014.1 hPa SW 9.7 km/h 19.3 km/h 84% 0 mm
14:04 24.3 °C 21.2 °C 1013.8 hPa West 12.9 km/h 20.9 km/h 83% 0 mm
14:09 24.2 °C 21.2 °C 1013.8 hPa SW 9.7 km/h 22.5 km/h 83% 0 mm
14:14 24.3 °C 21.3 °C 1013.8 hPa WNW 9.7 km/h 17.7 km/h 83% 0 mm
14:19 24.4 °C 21.4 °C 1014.1 hPa WSW 14.5 km/h 20.9 km/h 83% 0 mm
14:24 24.2 °C 21.2 °C 1014.1 hPa WSW 8 km/h 20.9 km/h 83% 0 mm
14:29 24 °C 20.9 °C 1014.1 hPa WSW 11.3 km/h 20.9 km/h 83% 0 mm
14:34 23.9 °C 20.8 °C 1014.1 hPa SW 11.3 km/h 27.4 km/h 83% 0 mm
14:39 23.8 °C 20.9 °C 1014.4 hPa SW 12.9 km/h 27.4 km/h 84% 0 mm
14:44 23.9 °C 20.8 °C 1014.4 hPa WSW 11.3 km/h 22.5 km/h 83% 0 mm
14:49 23.8 °C 20.8 °C 1014.4 hPa WSW 9.7 km/h 24.1 km/h 83% 0 mm
14:54 23.7 °C 20.7 °C 1014.4 hPa SSW 11.3 km/h 24.1 km/h 83% 0 mm
14:59 23.6 °C 20.7 °C 1014.4 hPa SW 12.9 km/h 24.1 km/h 84% 0 mm
15:04 23.5 °C 20.6 °C 1014.4 hPa West 6.4 km/h 22.5 km/h 84% 0 mm
15:09 23.5 °C 20.6 °C 1014.4 hPa SSW 11.3 km/h 20.9 km/h 84% 0 mm
15:14 23.6 °C 20.7 °C 1014.4 hPa WSW 9.7 km/h 20.9 km/h 84% 0 mm
15:19 23.7 °C 20.8 °C 1014.1 hPa WSW 11.3 km/h 22.5 km/h 84% 0 mm
15:24 23.9 °C 20.9 °C 1014.4 hPa SW 9.7 km/h 20.9 km/h 83% 0 mm
15:29 23.8 °C 20.7 °C 1014.1 hPa WSW 9.7 km/h 27.4 km/h 83% 0 mm
15:34 23.7 °C 20.8 °C 1014.1 hPa WSW 9.7 km/h 27.4 km/h 84% 0 mm
15:39 23.8 °C 20.9 °C 1014.1 hPa WSW 9.7 km/h 17.7 km/h 84% 0 mm
15:44 23.7 °C 20.7 °C 1014.1 hPa WSW 9.7 km/h 25.7 km/h 83% 0 mm
15:49 23.7 °C 20.8 °C 1014.1 hPa WSW 9.7 km/h 25.7 km/h 84% 0 mm
15:54 23.7 °C 20.6 °C 1014.1 hPa SW 9.7 km/h 19.3 km/h 83% 0 mm
15:59 23.6 °C 20.7 °C 1014.1 hPa WSW 9.7 km/h 19.3 km/h 84% 0 mm
16:04 23.6 °C 20.7 °C 1013.8 hPa SW 16.1 km/h 19.3 km/h 84% 0 mm
16:09 23.7 °C 20.8 °C 1013.8 hPa SW 4.8 km/h 16.1 km/h 84% 0 mm
16:14 23.8 °C 20.9 °C 1013.8 hPa WSW 11.3 km/h 16.1 km/h 84% 0 mm
16:19 23.9 °C 20.8 °C 1013.8 hPa WSW 4.8 km/h 14.5 km/h 83% 0 mm
16:24 23.9 °C 21.1 °C 1013.4 hPa SSW 6.4 km/h 16.1 km/h 84% 0 mm
16:29 24.2 °C 21.1 °C 1013.8 hPa WSW 8 km/h 9.7 km/h 83% 0 mm
16:34 24.1 °C 20.8 °C 1013.8 hPa SSW 14.5 km/h 19.3 km/h 82% 0 mm
16:39 23.9 °C 20.9 °C 1013.8 hPa South 3.2 km/h 17.7 km/h 83% 0 mm
16:44 23.8 °C 20.8 °C 1013.8 hPa WSW 9.7 km/h 22.5 km/h 83% 0 mm
16:49 23.8 °C 20.9 °C 1013.8 hPa SW 8 km/h 16.1 km/h 84% 0 mm
16:54 23.8 °C 20.9 °C 1013.8 hPa SW 11.3 km/h 14.5 km/h 84% 0 mm
16:59 23.9 °C 20.9 °C 1013.4 hPa SSW 6.4 km/h 12.9 km/h 83% 0 mm
17:04 24.1 °C 21 °C 1013.4 hPa SW 6.4 km/h 16.1 km/h 83% 0 mm
17:09 24.2 °C 21.2 °C 1013.4 hPa SW 8 km/h 16.1 km/h 83% 0 mm
17:14 24.3 °C 21 °C 1013.8 hPa SW 8 km/h 16.1 km/h 82% 0 mm
17:19 24.4 °C 20.9 °C 1013.8 hPa West 9.7 km/h 22.5 km/h 81% 0 mm
17:24 24.4 °C 20.8 °C 1013.8 hPa SW 6.4 km/h 20.9 km/h 80% 0 mm
17:29 24.5 °C 20.8 °C 1013.8 hPa West 12.9 km/h 17.7 km/h 80% 0 mm
17:34 24.4 °C 20.9 °C 1013.8 hPa WSW 8 km/h 17.7 km/h 81% 0 mm
17:39 24.4 °C 20.9 °C 1013.8 hPa WSW 8 km/h 16.1 km/h 81% 0 mm
17:44 24.5 °C 21 °C 1013.8 hPa SW 8 km/h 19.3 km/h 81% 0 mm
17:49 24.4 °C 20.9 °C 1013.8 hPa SW 6.4 km/h 16.1 km/h 81% 0 mm
17:54 24.3 °C 20.9 °C 1013.8 hPa SW 17.7 km/h 25.7 km/h 81% 0 mm
17:59 24.4 °C 21.1 °C 1013.8 hPa WSW 4.8 km/h 19.3 km/h 82% 0 mm
18:04 24.3 °C 21.1 °C 1013.4 hPa South 8 km/h 17.7 km/h 82% 0 mm
18:09 24.3 °C 21 °C 1013.4 hPa SW 8 km/h 19.3 km/h 82% 0 mm
18:14 24.3 °C 21.3 °C 1013.4 hPa SW 8 km/h 19.3 km/h 83% 0 mm
18:19 24.4 °C 21.3 °C 1013.4 hPa SW 6.4 km/h 16.1 km/h 83% 0 mm
18:24 24.3 °C 21 °C 1013.4 hPa SSE 3.2 km/h 17.7 km/h 82% 0 mm
18:29 24.3 °C 21.2 °C 1013.4 hPa WSW 6.4 km/h 19.3 km/h 83% 0 mm
18:34 24.2 °C 21.2 °C 1013.1 hPa SW 6.4 km/h 16.1 km/h 83% 0 mm
18:39 24.2 °C 21.2 °C 1012.8 hPa SW 6.4 km/h 16.1 km/h 83% 0 mm
18:44 24.2 °C 21.1 °C 1013.1 hPa SSW 6.4 km/h 11.3 km/h 83% 0 mm
18:49 24.2 °C 21.2 °C 1013.4 hPa SW 3.2 km/h 14.5 km/h 83% 0 mm
18:54 24.3 °C 21.2 °C 1013.4 hPa SW 6.4 km/h 16.1 km/h 83% 0 mm
18:59 24.3 °C 21.2 °C 1013.4 hPa South 3.2 km/h 17.7 km/h 83% 0 mm
19:04 24.4 °C 21.1 °C 1013.1 hPa South 8 km/h 12.9 km/h 82% 0 mm
19:09 24.4 °C 21.2 °C 1013.1 hPa SSW 4.8 km/h 11.3 km/h 82% 0 mm
19:14 24.4 °C 21.2 °C 1013.1 hPa SW 6.4 km/h 14.5 km/h 82% 0 mm
19:19 24.4 °C 21.2 °C 1013.1 hPa SW 6.4 km/h 14.5 km/h 82% 0 mm
19:24 24.4 °C 21.2 °C 1013.1 hPa SW 6.4 km/h 14.5 km/h 82% 0 mm
19:29 24.4 °C 21.2 °C 1013.4 hPa SW 6.4 km/h 12.9 km/h 82% 0 mm
19:34 24.4 °C 21.2 °C 1013.4 hPa SW 8 km/h 11.3 km/h 82% 0 mm
19:39 24.5 °C 21.2 °C 1013.1 hPa SW 8 km/h 12.9 km/h 82% 0 mm
19:44 24.4 °C 21.2 °C 1013.1 hPa SSW 6.4 km/h 12.9 km/h 82% 0 mm
19:49 24.4 °C 21.2 °C 1013.1 hPa SW 8 km/h 11.3 km/h 82% 0 mm
19:54 24.4 °C 21.2 °C 1013.1 hPa WSW 11.3 km/h 11.3 km/h 82% 0 mm
19:59 24.4 °C 21.2 °C 1013.1 hPa West 4.8 km/h 11.3 km/h 82% 0 mm
20:04 24.5 °C 21.2 °C 1013.1 hPa SW 8 km/h 11.3 km/h 82% 0 mm
20:09 24.5 °C 21 °C 1013.1 hPa SW 4.8 km/h 12.9 km/h 81% 0 mm
20:14 24.5 °C 21 °C 1013.1 hPa SW 6.4 km/h 12.9 km/h 81% 0 mm
20:19 24.6 °C 21.1 °C 1013.1 hPa SW 6.4 km/h 14.5 km/h 81% 0 mm
20:24 24.6 °C 21.1 °C 1013.1 hPa SW 6.4 km/h 14.5 km/h 81% 0 mm
20:29 24.7 °C 21 °C 1013.1 hPa SW 6.4 km/h 16.1 km/h 80% 0 mm
20:34 24.6 °C 20.9 °C 1013.1 hPa SW 6.4 km/h 12.9 km/h 80% 0 mm
20:39 24.6 °C 20.9 °C 1013.1 hPa SW 4.8 km/h 12.9 km/h 80% 0 mm
20:44 24.6 °C 20.9 °C 1013.1 hPa SW 6.4 km/h 12.9 km/h 80% 0 mm
20:49 24.6 °C 20.9 °C 1013.1 hPa SW 6.4 km/h 12.9 km/h 80% 0 mm
20:54 24.5 °C 20.8 °C 1012.8 hPa Calm   8 km/h 80% 0 mm
20:59 24.4 °C 20.7 °C 1012.8 hPa SSW 3.2 km/h 8 km/h 80% 0 mm
21:04 24.4 °C 20.9 °C 1012.8 hPa SSW 3.2 km/h 4.8 km/h 81% 0 mm
21:09 24.4 °C 20.9 °C 1012.8 hPa SW 1.6 km/h 6.4 km/h 81% 0 mm
21:14 24.4 °C 20.9 °C 1012.8 hPa SSW 1.6 km/h 6.4 km/h 81% 0 mm
21:19 24.4 °C 20.9 °C 1012.8 hPa SW 1.6 km/h 3.2 km/h 81% 0 mm
21:24 24.3 °C 20.9 °C 1012.8 hPa Calm   1.6 km/h 81% 0 mm
21:29 24.3 °C 20.9 °C 1013.1 hPa Calm     81% 0 mm
21:34 24.3 °C 20.9 °C 1012.8 hPa Calm     81% 0 mm
21:39 24.3 °C 20.9 °C 1012.8 hPa Calm     81% 0 mm
21:44 24.3 °C 20.8 °C 1012.8 hPa Calm     81% 0 mm
21:49 24.3 °C 20.8 °C 1012.8 hPa Calm     81% 0 mm
21:54 24.3 °C 20.8 °C 1012.8 hPa SSE 3.2 km/h 3.2 km/h 81% 0 mm
21:59 24.3 °C 20.9 °C 1012.8 hPa SSE 4.8 km/h 6.4 km/h 81% 0 mm
22:04 24.4 °C 20.9 °C 1012.8 hPa SSW 6.4 km/h 8 km/h 81% 0 mm
22:09 24.4 °C 21.2 °C 1012.4 hPa Calm   9.7 km/h 82% 0.25 mm
22:14 24.3 °C 21.4 °C 1012.4 hPa South 4.8 km/h 8 km/h 84% 0.25 mm
22:19 24.1 °C 21.2 °C 1012.4 hPa South 3.2 km/h 8 km/h 84% 0.25 mm
22:24 23.9 °C 21 °C 1012.4 hPa South 3.2 km/h 8 km/h 84% 0.25 mm
22:29 23.8 °C 20.9 °C 1012.4 hPa SSW 3.2 km/h 8 km/h 84% 0.25 mm
22:34 23.7 °C 20.8 °C 1012.4 hPa South 1.6 km/h 6.4 km/h 84% 0.25 mm
22:39 23.7 °C 20.6 °C 1012.4 hPa Calm   6.4 km/h 83% 0.25 mm
22:44 23.6 °C 20.7 °C 1012.1 hPa South 3.2 km/h 4.8 km/h 84% 0.25 mm
22:49 23.7 °C 20.7 °C 1012.1 hPa South 1.6 km/h 4.8 km/h 83% 0.25 mm
22:54 23.8 °C 20.7 °C 1012.4 hPa SSW 3.2 km/h 11.3 km/h 83% 0.76 mm
22:59 23.5 °C 20.6 °C 1012.1 hPa SW 3.2 km/h 4.8 km/h 84% 2.79 mm
23:04 23.2 °C 20.7 °C 1011.4 hPa SSE 1.6 km/h 4.8 km/h 86% 4.32 mm
23:09 22.9 °C 20.8 °C 1011.4 hPa SSW 6.4 km/h 9.7 km/h 88% 4.57 mm
23:14 22.8 °C 20.7 °C 1011.7 hPa NW 3.2 km/h 9.7 km/h 88% 4.83 mm
23:19 22.8 °C 20.9 °C 1012.1 hPa NW 4.8 km/h 12.9 km/h 89% 5.08 mm
23:24 22.7 °C 20.8 °C 1011.7 hPa NNW 4.8 km/h 12.9 km/h 89% 5.08 mm
23:29 22.8 °C 21.1 °C 1011.7 hPa West 3.2 km/h 6.4 km/h 90% 5.08 mm
23:34 22.9 °C 21.2 °C 1012.1 hPa WSW 8 km/h 12.9 km/h 90% 5.08 mm
23:39 23.2 °C 21.5 °C 1012.1 hPa West 4.8 km/h 19.3 km/h 90% 5.08 mm
23:44 23.2 °C 21.3 °C 1012.4 hPa West 1.6 km/h 9.7 km/h 89% 5.08 mm
23:49 23.3 °C 21.6 °C 1012.4 hPa West 4.8 km/h 9.7 km/h 90% 5.08 mm
23:54 23.6 °C 21.6 °C 1012.4 hPa West 4.8 km/h 11.3 km/h 89% 4.57 mm
23:59 23.7 °C 21.7 °C 1012.4 hPa WSW 6.4 km/h 12.9 km/h 89% 2.54 mm
Buffalo, New York, USA
Compliments of Weather Underground - 2.5 mb